createdAt,value
2023-04-29T00:00:12.853Z,154.69
2023-04-29T00:01:12.857Z,154.33
2023-04-29T00:02:12.892Z,153.75
2023-04-29T00:03:13.032Z,153.83
2023-04-29T00:04:13.023Z,153.16
2023-04-29T00:05:13.239Z,154.59
2023-04-29T00:06:13.127Z,153.57
2023-04-29T00:07:13.020Z,151.65
2023-04-29T00:08:13.052Z,152.82
2023-04-29T00:09:13.064Z,154.34
2023-04-29T00:10:13.107Z,156.55
2023-04-29T00:11:13.129Z,154.25
2023-04-29T00:12:13.173Z,152.84
2023-04-29T00:13:13.186Z,151.02
2023-04-29T00:14:13.217Z,151.80
2023-04-29T00:15:13.252Z,150.53
2023-04-29T00:16:13.280Z,156.57
2023-04-29T00:17:13.330Z,155.74
2023-04-29T00:18:13.293Z,150.20
2023-04-29T00:19:13.318Z,148.59
2023-04-29T00:20:13.341Z,147.57
2023-04-29T00:21:13.352Z,143.66
2023-04-29T00:22:13.344Z,144.21
2023-04-29T00:23:13.388Z,145.13
2023-04-29T00:24:13.429Z,152.81
2023-04-29T00:25:13.454Z,162.20
2023-04-29T00:26:13.459Z,164.38
2023-04-29T00:27:13.473Z,162.32
2023-04-29T00:28:13.482Z,161.49
2023-04-29T00:29:13.476Z,160.19
2023-04-29T00:30:13.510Z,162.56
2023-04-29T00:31:13.548Z,164.73
2023-04-29T00:32:13.532Z,163.87
2023-04-29T00:33:13.544Z,163.72
2023-04-29T00:34:13.571Z,162.78
2023-04-29T00:35:13.563Z,162.79
2023-04-29T00:36:13.571Z,164.13
2023-04-29T00:37:13.539Z,159.65
2023-04-29T00:38:13.561Z,158.76
2023-04-29T00:39:15.218Z,160.78
2023-04-29T00:40:13.549Z,161.79
2023-04-29T00:41:13.568Z,161.15
2023-04-29T00:42:13.576Z,159.47
2023-04-29T00:43:13.553Z,160.19
2023-04-29T00:44:13.580Z,159.71
2023-04-29T00:45:13.578Z,153.69
2023-04-29T00:46:13.590Z,152.77
2023-04-29T00:47:13.602Z,148.83
2023-04-29T00:48:13.615Z,148.91
2023-04-29T00:49:13.642Z,152.19
2023-04-29T00:50:13.645Z,154.65
2023-04-29T00:51:13.637Z,156.42
2023-04-29T00:52:13.663Z,159.95
2023-04-29T00:53:13.662Z,160.24
2023-04-29T00:54:13.653Z,156.04
2023-04-29T00:55:13.671Z,154.09
2023-04-29T00:56:13.667Z,152.88
2023-04-29T00:57:13.656Z,156.12
2023-04-29T00:58:13.674Z,154.28
2023-04-29T00:59:13.697Z,154.01
2023-04-29T01:00:13.698Z,155.34
2023-04-29T01:01:13.725Z,154.09
2023-04-29T01:02:13.700Z,157.13
2023-04-29T01:03:13.863Z,154.96
2023-04-29T01:04:13.790Z,154.65
2023-04-29T01:05:13.717Z,160.03
2023-04-29T01:06:13.737Z,159.39
2023-04-29T01:07:13.744Z,158.81
2023-04-29T01:08:14.607Z,160.23
2023-04-29T01:09:13.791Z,162.74
2023-04-29T01:10:13.813Z,162.51
2023-04-29T01:11:13.814Z,162.21
2023-04-29T01:12:13.784Z,162.92
2023-04-29T01:13:13.794Z,162.70
2023-04-29T01:14:13.800Z,162.36
2023-04-29T01:15:13.819Z,163.08
2023-04-29T01:16:13.851Z,163.30
2023-04-29T01:17:13.826Z,162.12
2023-04-29T01:18:13.860Z,163.69
2023-04-29T01:19:13.840Z,164.54
2023-04-29T01:20:13.851Z,163.29
2023-04-29T01:21:13.844Z,163.18
2023-04-29T01:22:13.830Z,162.44
2023-04-29T01:23:13.868Z,163.44
2023-04-29T01:24:13.856Z,161.68
2023-04-29T01:25:13.889Z,163.08
2023-04-29T01:26:13.880Z,164.55
2023-04-29T01:27:13.878Z,161.02
2023-04-29T01:28:13.875Z,159.23
2023-04-29T01:29:13.864Z,160.25
2023-04-29T01:30:13.936Z,156.06
2023-04-29T01:31:13.887Z,152.29
2023-04-29T01:32:13.870Z,154.30
2023-04-29T01:33:13.980Z,160.59
2023-04-29T01:34:13.881Z,158.30
2023-04-29T01:35:13.874Z,155.10
2023-04-29T01:36:13.924Z,154.72
2023-04-29T01:37:13.859Z,152.35
2023-04-29T01:38:13.849Z,151.40
2023-04-29T01:39:13.853Z,148.99
2023-04-29T01:40:13.841Z,148.94
2023-04-29T01:41:13.854Z,150.03
2023-04-29T01:42:13.852Z,149.51
2023-04-29T01:43:13.846Z,152.36
2023-04-29T01:44:13.844Z,156.39
2023-04-29T01:45:13.841Z,160.38
2023-04-29T01:46:13.899Z,162.91
2023-04-29T01:47:13.829Z,163.21
2023-04-29T01:48:13.819Z,167.48
2023-04-29T01:49:13.808Z,170.19
2023-04-29T01:50:13.797Z,173.26
2023-04-29T01:51:13.821Z,176.42
2023-04-29T01:52:13.816Z,176.85
2023-04-29T01:53:13.819Z,180.56
2023-04-29T01:54:13.802Z,179.48
2023-04-29T01:55:13.846Z,178.63
2023-04-29T01:56:13.855Z,178.33
2023-04-29T01:57:13.787Z,178.71
2023-04-29T01:58:13.778Z,176.45
2023-04-29T01:59:13.780Z,176.38
2023-04-29T02:00:13.812Z,177.94
2023-04-29T02:01:13.820Z,179.82
2023-04-29T02:02:13.786Z,181.49
2023-04-29T02:03:13.878Z,183.43
2023-04-29T02:04:13.813Z,182.95
2023-04-29T02:05:13.792Z,186.83
2023-04-29T02:06:13.807Z,186.34
2023-04-29T02:07:13.795Z,184.13
2023-04-29T02:08:13.799Z,182.61
2023-04-29T02:09:13.777Z,180.11
2023-04-29T02:10:13.773Z,180.75
2023-04-29T02:11:13.786Z,176.88
2023-04-29T02:12:13.796Z,177.48
2023-04-29T02:13:13.778Z,179.44
2023-04-29T02:14:13.792Z,183.95
2023-04-29T02:15:13.777Z,184.38
2023-04-29T02:16:13.846Z,188.83
2023-04-29T02:17:13.775Z,189.86
2023-04-29T02:18:13.746Z,191.26
2023-04-29T02:19:13.755Z,184.77
2023-04-29T02:20:13.760Z,181.01
2023-04-29T02:21:13.741Z,181.72
2023-04-29T02:22:13.757Z,182.28
2023-04-29T02:23:13.746Z,183.27
2023-04-29T02:24:13.733Z,179.71
2023-04-29T02:25:13.732Z,181.31
2023-04-29T02:26:13.740Z,183.22
2023-04-29T02:27:13.741Z,184.91
2023-04-29T02:28:13.768Z,184.66
2023-04-29T02:29:13.788Z,182.44
2023-04-29T02:30:13.831Z,181.11
2023-04-29T02:31:13.823Z,179.44
2023-04-29T02:32:13.859Z,177.56
2023-04-29T02:33:13.880Z,177.80
2023-04-29T02:34:13.839Z,176.28
2023-04-29T02:35:13.826Z,178.73
2023-04-29T02:36:13.841Z,174.35
2023-04-29T02:37:13.838Z,176.23
2023-04-29T02:38:13.845Z,175.02
2023-04-29T02:39:13.870Z,174.17
2023-04-29T02:40:13.871Z,171.41
2023-04-29T02:41:13.830Z,170.98
2023-04-29T02:42:13.841Z,171.12
2023-04-29T02:43:13.849Z,170.12
2023-04-29T02:44:13.817Z,170.28
2023-04-29T02:45:13.819Z,168.86
2023-04-29T02:46:13.843Z,173.24
2023-04-29T02:47:13.804Z,169.00
2023-04-29T02:48:13.822Z,173.74
2023-04-29T02:49:13.794Z,172.73
2023-04-29T02:50:13.844Z,173.91
2023-04-29T02:51:13.839Z,171.78
2023-04-29T02:52:13.874Z,171.14
2023-04-29T02:53:13.878Z,177.83
2023-04-29T02:54:13.893Z,179.42
2023-04-29T02:55:13.885Z,181.73
2023-04-29T02:56:13.896Z,181.20
2023-04-29T02:57:13.907Z,181.56
2023-04-29T02:58:13.929Z,174.90
2023-04-29T02:59:13.944Z,171.13
2023-04-29T03:00:13.939Z,173.74
2023-04-29T03:01:13.923Z,178.13
2023-04-29T03:02:13.984Z,177.00
2023-04-29T03:03:14.170Z,176.35
2023-04-29T03:04:14.018Z,174.69
2023-04-29T03:05:13.967Z,174.68
2023-04-29T03:06:13.971Z,175.14
2023-04-29T03:07:13.952Z,172.08
2023-04-29T03:08:13.953Z,176.05
2023-04-29T03:09:13.958Z,171.31
2023-04-29T03:10:14.001Z,162.29
2023-04-29T03:11:13.962Z,162.14
2023-04-29T03:12:13.958Z,161.70
2023-04-29T03:13:13.977Z,159.65
2023-04-29T03:14:13.959Z,156.82
2023-04-29T03:15:13.972Z,154.31
2023-04-29T03:16:14.007Z,150.68
2023-04-29T03:17:13.970Z,150.46
2023-04-29T03:18:14.074Z,148.42
2023-04-29T03:19:13.934Z,146.59
2023-04-29T03:20:13.936Z,144.30
2023-04-29T03:21:13.936Z,145.03
2023-04-29T03:22:13.951Z,146.22
2023-04-29T03:23:13.997Z,146.52
2023-04-29T03:24:13.968Z,147.08
2023-04-29T03:25:14.044Z,144.34
2023-04-29T03:26:14.006Z,150.15
2023-04-29T03:27:13.982Z,153.59
2023-04-29T03:28:13.972Z,152.51
2023-04-29T03:29:13.946Z,150.64
2023-04-29T03:30:13.983Z,148.60
2023-04-29T03:31:14.022Z,148.42
2023-04-29T03:32:13.992Z,146.79
2023-04-29T03:33:14.039Z,146.31
2023-04-29T03:34:14.065Z,147.64
2023-04-29T03:35:15.732Z,148.06
2023-04-29T03:36:14.090Z,147.12
2023-04-29T03:37:14.123Z,152.97
2023-04-29T03:38:14.146Z,151.41
2023-04-29T03:39:14.114Z,148.20
2023-04-29T03:40:14.152Z,148.79
2023-04-29T03:41:14.128Z,153.97
2023-04-29T03:42:14.124Z,151.90
2023-04-29T03:43:14.161Z,152.44
2023-04-29T03:44:14.119Z,150.43
2023-04-29T03:45:14.105Z,152.28
2023-04-29T03:46:14.108Z,149.84
2023-04-29T03:47:14.105Z,149.92
2023-04-29T03:48:14.086Z,153.62
2023-04-29T03:49:14.076Z,156.23
2023-04-29T03:50:14.094Z,160.79
2023-04-29T03:51:14.065Z,162.47
2023-04-29T03:52:14.071Z,168.50
2023-04-29T03:53:14.064Z,173.67
2023-04-29T03:54:14.069Z,172.76
2023-04-29T03:55:14.065Z,174.51
2023-04-29T03:56:14.055Z,174.45
2023-04-29T03:57:14.461Z,173.06
2023-04-29T03:58:14.042Z,173.85
2023-04-29T03:59:14.036Z,171.19
2023-04-29T04:00:14.033Z,171.62
2023-04-29T04:01:14.038Z,172.68
2023-04-29T04:02:14.100Z,166.08
2023-04-29T04:03:14.138Z,163.67
2023-04-29T04:04:14.181Z,164.80
2023-04-29T04:05:14.170Z,167.44
2023-04-29T04:06:14.026Z,171.45
2023-04-29T04:07:14.021Z,170.85
2023-04-29T04:08:14.007Z,169.75
2023-04-29T04:09:14.002Z,166.50
2023-04-29T04:10:14.008Z,164.19
2023-04-29T04:11:14.001Z,163.63
2023-04-29T04:12:13.999Z,165.90
2023-04-29T04:13:13.991Z,162.34
2023-04-29T04:14:13.985Z,159.22
2023-04-29T04:15:13.998Z,158.55
2023-04-29T04:16:14.057Z,154.29
2023-04-29T04:17:13.978Z,153.70
2023-04-29T04:18:14.010Z,152.41
2023-04-29T04:19:14.052Z,154.77
2023-04-29T04:20:14.021Z,152.40
2023-04-29T04:21:13.994Z,150.15
2023-04-29T04:22:14.000Z,147.69
2023-04-29T04:23:13.999Z,149.18
2023-04-29T04:24:13.989Z,144.70
2023-04-29T04:25:14.029Z,141.27
2023-04-29T04:26:13.976Z,146.49
2023-04-29T04:27:13.962Z,151.34
2023-04-29T04:28:13.970Z,147.89
2023-04-29T04:29:13.985Z,144.28
2023-04-29T04:30:13.970Z,143.04
2023-04-29T04:31:13.972Z,141.99
2023-04-29T04:32:13.965Z,142.82
2023-04-29T04:33:13.984Z,147.37
2023-04-29T04:34:13.996Z,145.75
2023-04-29T04:35:13.967Z,146.43
2023-04-29T04:36:13.976Z,149.92
2023-04-29T04:37:13.977Z,154.70
2023-04-29T04:38:13.949Z,158.46
2023-04-29T04:39:13.941Z,151.40
2023-04-29T04:40:13.959Z,150.34
2023-04-29T04:41:13.944Z,152.78
2023-04-29T04:42:13.967Z,155.42
2023-04-29T04:43:13.946Z,155.87
2023-04-29T04:44:13.924Z,157.04
2023-04-29T04:45:13.919Z,158.00
2023-04-29T04:46:13.952Z,158.02
2023-04-29T04:47:13.934Z,161.00
2023-04-29T04:48:13.922Z,158.13
2023-04-29T04:49:13.914Z,154.23
2023-04-29T04:50:13.902Z,157.08
2023-04-29T04:51:13.901Z,159.94
2023-04-29T04:52:13.900Z,161.87
2023-04-29T04:53:13.886Z,160.56
2023-04-29T04:54:13.897Z,161.18
2023-04-29T04:55:15.158Z,159.87
2023-04-29T04:56:13.875Z,158.78
2023-04-29T04:57:13.883Z,154.09
2023-04-29T04:58:13.886Z,154.30
2023-04-29T04:59:13.856Z,150.75
2023-04-29T05:00:13.873Z,148.33
2023-04-29T05:01:13.883Z,152.03
2023-04-29T05:02:13.865Z,150.33
2023-04-29T05:03:13.934Z,151.35
2023-04-29T05:04:13.904Z,155.12
2023-04-29T05:05:13.823Z,155.38
2023-04-29T05:06:13.849Z,160.14
2023-04-29T05:07:13.859Z,163.68
2023-04-29T05:08:13.860Z,161.91
2023-04-29T05:09:13.897Z,159.27
2023-04-29T05:10:13.889Z,159.31
2023-04-29T05:11:13.921Z,158.29
2023-04-29T05:12:13.937Z,160.86
2023-04-29T05:13:13.938Z,160.96
2023-04-29T05:14:14.203Z,162.86
2023-04-29T05:15:13.962Z,161.96
2023-04-29T05:16:14.012Z,162.72
2023-04-29T05:17:14.012Z,163.36
2023-04-29T05:18:14.039Z,166.21
2023-04-29T05:19:14.015Z,167.84
2023-04-29T05:20:14.050Z,167.45
2023-04-29T05:21:15.999Z,170.43
2023-04-29T05:22:14.058Z,172.97
2023-04-29T05:23:14.055Z,171.64
2023-04-29T05:24:14.034Z,173.60
2023-04-29T05:25:14.029Z,172.46
2023-04-29T05:26:14.051Z,172.54
2023-04-29T05:27:14.015Z,172.72
2023-04-29T05:28:14.016Z,173.91
2023-04-29T05:29:14.010Z,175.41
2023-04-29T05:30:13.996Z,176.79
2023-04-29T05:31:14.058Z,176.86
2023-04-29T05:32:14.007Z,176.81
2023-04-29T05:33:14.239Z,176.74
2023-04-29T05:34:13.988Z,175.50
2023-04-29T05:35:13.967Z,176.08
2023-04-29T05:36:13.988Z,176.40
2023-04-29T05:37:13.962Z,180.58
2023-04-29T05:38:13.944Z,184.58
2023-04-29T05:39:13.933Z,183.09
2023-04-29T05:40:13.953Z,186.70
2023-04-29T05:41:13.943Z,193.57
2023-04-29T05:42:13.933Z,196.73
2023-04-29T05:43:13.928Z,197.20
2023-04-29T05:44:13.900Z,196.66
2023-04-29T05:45:13.889Z,198.74
2023-04-29T05:46:13.940Z,202.42
2023-04-29T05:47:13.893Z,202.37
2023-04-29T05:48:13.909Z,201.17
2023-04-29T05:49:13.903Z,199.07
2023-04-29T05:50:13.898Z,201.06
2023-04-29T05:51:13.874Z,200.46
2023-04-29T05:52:13.877Z,199.90
2023-04-29T05:53:13.864Z,199.86
2023-04-29T05:54:13.857Z,199.80
2023-04-29T05:55:13.853Z,201.45
2023-04-29T05:56:13.843Z,201.12
2023-04-29T05:57:13.833Z,201.76
2023-04-29T05:58:13.818Z,201.97
2023-04-29T05:59:13.830Z,199.09
2023-04-29T06:00:13.825Z,201.98
2023-04-29T06:01:13.828Z,202.52
2023-04-29T06:02:13.798Z,200.13
2023-04-29T06:03:13.883Z,202.07
2023-04-29T06:04:14.049Z,202.94
2023-04-29T06:05:13.957Z,201.48
2023-04-29T06:06:13.991Z,202.08
2023-04-29T06:07:13.751Z,201.52
2023-04-29T06:08:13.749Z,200.92
2023-04-29T06:09:26.540Z,198.59
2023-04-29T06:10:14.740Z,198.83
2023-04-29T06:11:13.730Z,199.20
2023-04-29T06:12:13.729Z,199.27
2023-04-29T06:13:13.738Z,200.11
2023-04-29T06:14:13.734Z,198.66
2023-04-29T06:15:13.733Z,198.55
2023-04-29T06:16:13.739Z,198.13
2023-04-29T06:17:13.709Z,198.03
2023-04-29T06:18:13.696Z,198.58
2023-04-29T06:19:13.755Z,198.87
2023-04-29T06:20:13.845Z,199.39
2023-04-29T06:21:13.889Z,201.54
2023-04-29T06:22:13.919Z,201.95
2023-04-29T06:23:14.016Z,202.03
2023-04-29T06:24:14.072Z,200.92
2023-04-29T06:25:14.175Z,201.25
2023-04-29T06:26:14.192Z,202.93
2023-04-29T06:27:14.243Z,202.40
2023-04-29T06:28:14.295Z,204.03
2023-04-29T06:29:14.354Z,204.22
2023-04-29T06:30:14.416Z,208.70
2023-04-29T06:31:14.487Z,215.09
2023-04-29T06:32:14.566Z,220.52
2023-04-29T06:33:14.567Z,226.04
2023-04-29T06:34:14.616Z,231.96
2023-04-29T06:35:14.660Z,233.80
2023-04-29T06:36:14.733Z,237.53
2023-04-29T06:37:14.797Z,233.56
2023-04-29T06:38:14.810Z,235.11
2023-04-29T06:39:14.866Z,236.46
2023-04-29T06:40:14.903Z,238.09
2023-04-29T06:41:14.960Z,239.07
2023-04-29T06:42:15.039Z,239.21
2023-04-29T06:43:15.061Z,239.87
2023-04-29T06:44:15.108Z,236.94
2023-04-29T06:45:15.147Z,231.98
2023-04-29T06:46:15.297Z,230.21
2023-04-29T06:47:15.333Z,227.69
2023-04-29T06:48:15.256Z,223.61
2023-04-29T06:49:15.280Z,224.45
2023-04-29T06:50:15.298Z,225.27
2023-04-29T06:51:15.346Z,224.44
2023-04-29T06:52:15.364Z,222.11
2023-04-29T06:53:15.380Z,221.94
2023-04-29T06:54:15.402Z,220.69
2023-04-29T06:55:15.404Z,222.52
2023-04-29T06:56:16.942Z,220.56
2023-04-29T06:57:15.457Z,220.14
2023-04-29T06:58:15.445Z,219.38
2023-04-29T06:59:15.466Z,214.90
2023-04-29T07:00:15.476Z,210.67
2023-04-29T07:01:15.503Z,205.96
2023-04-29T07:02:15.497Z,209.63
2023-04-29T07:03:15.653Z,205.78
2023-04-29T07:04:15.492Z,203.41
2023-04-29T07:05:15.466Z,203.20
2023-04-29T07:06:15.481Z,199.99
2023-04-29T07:07:15.482Z,203.10
2023-04-29T07:08:15.484Z,200.17
2023-04-29T07:09:15.515Z,198.48
2023-04-29T07:10:15.550Z,199.37
2023-04-29T07:11:15.581Z,197.69
2023-04-29T07:12:15.620Z,195.81
2023-04-29T07:13:15.675Z,197.09
2023-04-29T07:14:15.741Z,195.16
2023-04-29T07:15:15.807Z,195.49
2023-04-29T07:16:15.890Z,194.13
2023-04-29T07:17:15.910Z,193.24
2023-04-29T07:18:15.976Z,195.10
2023-04-29T07:19:16.043Z,196.19
2023-04-29T07:20:16.108Z,195.28
2023-04-29T07:21:16.175Z,195.62
2023-04-29T07:22:16.233Z,194.17
2023-04-29T07:23:16.273Z,193.83
2023-04-29T07:24:16.281Z,193.14
2023-04-29T07:25:16.307Z,192.19
2023-04-29T07:26:16.316Z,193.53
2023-04-29T07:27:16.328Z,191.96
2023-04-29T07:28:16.400Z,192.56
2023-04-29T07:29:16.432Z,193.79
2023-04-29T07:30:16.468Z,194.72
2023-04-29T07:31:16.645Z,193.28
2023-04-29T07:32:16.554Z,192.37
2023-04-29T07:33:16.627Z,192.31
2023-04-29T07:34:16.664Z,192.44
2023-04-29T07:35:16.688Z,193.18
2023-04-29T07:36:16.756Z,191.07
2023-04-29T07:37:16.786Z,193.93
2023-04-29T07:38:16.827Z,190.23
2023-04-29T07:39:16.859Z,189.61
2023-04-29T07:40:16.900Z,189.70
2023-04-29T07:41:16.933Z,189.06
2023-04-29T07:42:16.962Z,186.82
2023-04-29T07:43:16.992Z,185.52
2023-04-29T07:44:17.039Z,184.02
2023-04-29T07:45:17.076Z,186.21
2023-04-29T07:46:17.135Z,185.47
2023-04-29T07:47:17.116Z,182.07
2023-04-29T07:48:17.147Z,182.50
2023-04-29T07:49:17.164Z,181.58
2023-04-29T07:50:17.193Z,179.48
2023-04-29T07:51:17.202Z,178.88
2023-04-29T07:52:17.244Z,179.38
2023-04-29T07:53:17.258Z,176.43
2023-04-29T07:54:17.262Z,172.77
2023-04-29T07:55:17.296Z,173.68
2023-04-29T07:56:17.316Z,172.67
2023-04-29T07:57:17.312Z,173.21
2023-04-29T07:58:17.353Z,172.44
2023-04-29T07:59:17.345Z,172.11
2023-04-29T08:00:17.361Z,170.08
2023-04-29T08:01:17.373Z,168.49
2023-04-29T08:02:17.438Z,170.20
2023-04-29T08:03:17.618Z,166.63
2023-04-29T08:04:17.650Z,166.49
2023-04-29T08:05:17.831Z,165.98
2023-04-29T08:06:17.487Z,165.57
2023-04-29T08:07:17.462Z,164.63
2023-04-29T08:08:17.473Z,162.01
2023-04-29T08:09:17.484Z,159.99
2023-04-29T08:10:17.466Z,159.93
2023-04-29T08:11:17.482Z,159.57
2023-04-29T08:12:17.467Z,156.28
2023-04-29T08:13:17.492Z,154.45
2023-04-29T08:14:17.483Z,152.59
2023-04-29T08:15:17.478Z,151.01
2023-04-29T08:16:17.558Z,150.93
2023-04-29T08:17:17.461Z,150.72
2023-04-29T08:18:17.450Z,153.70
2023-04-29T08:19:17.449Z,150.61
2023-04-29T08:20:17.452Z,149.62
2023-04-29T08:21:17.440Z,148.77
2023-04-29T08:22:17.450Z,146.78
2023-04-29T08:23:17.454Z,143.67
2023-04-29T08:24:17.442Z,144.50
2023-04-29T08:25:17.451Z,138.55
2023-04-29T08:26:17.434Z,138.96
2023-04-29T08:27:17.439Z,141.45
2023-04-29T08:28:17.450Z,140.67
2023-04-29T08:29:17.447Z,142.47
2023-04-29T08:30:17.453Z,143.29
2023-04-29T08:31:17.480Z,137.94
2023-04-29T08:32:17.474Z,141.35
2023-04-29T08:33:17.458Z,141.70
2023-04-29T08:34:17.468Z,141.32
2023-04-29T08:35:17.472Z,141.94
2023-04-29T08:36:17.468Z,138.29
2023-04-29T08:37:18.528Z,137.14
2023-04-29T08:38:17.473Z,137.89
2023-04-29T08:39:17.525Z,133.63
2023-04-29T08:40:17.465Z,133.78
2023-04-29T08:41:17.443Z,125.32
2023-04-29T08:42:17.443Z,129.75
2023-04-29T08:43:17.450Z,126.60
2023-04-29T08:44:17.486Z,122.42
2023-04-29T08:45:17.514Z,126.37
2023-04-29T08:46:17.650Z,125.92
2023-04-29T08:47:17.671Z,126.80
2023-04-29T08:48:17.688Z,122.72
2023-04-29T08:49:17.639Z,123.64
2023-04-29T08:50:17.680Z,122.32
2023-04-29T08:51:17.723Z,124.91
2023-04-29T08:52:17.791Z,119.06
2023-04-29T08:53:17.844Z,119.10
2023-04-29T08:54:17.921Z,117.26
2023-04-29T08:55:17.950Z,113.73
2023-04-29T08:56:18.030Z,118.36
2023-04-29T08:57:18.071Z,117.24
2023-04-29T08:58:18.158Z,118.98
2023-04-29T08:59:18.233Z,114.38
2023-04-29T09:00:18.249Z,110.30
2023-04-29T09:01:18.331Z,113.41
2023-04-29T09:02:18.312Z,111.81
2023-04-29T09:03:19.641Z,112.92
2023-04-29T09:04:18.393Z,116.91
2023-04-29T09:05:18.373Z,113.36
2023-04-29T09:06:18.343Z,115.16
2023-04-29T09:07:18.331Z,114.21
2023-04-29T09:08:18.312Z,111.71
2023-04-29T09:09:20.271Z,112.00
2023-04-29T09:10:18.449Z,112.05
2023-04-29T09:11:18.500Z,111.57
2023-04-29T09:12:18.558Z,107.00
2023-04-29T09:13:18.605Z,107.49
2023-04-29T09:14:18.659Z,103.44
2023-04-29T09:15:18.710Z,102.19
2023-04-29T09:16:18.810Z,104.91
2023-04-29T09:17:18.872Z,102.16
2023-04-29T09:18:18.890Z,104.68
2023-04-29T09:19:18.976Z,107.33
2023-04-29T09:20:19.081Z,104.41
2023-04-29T09:21:21.637Z,104.21
2023-04-29T09:22:19.080Z,108.05
2023-04-29T09:23:19.078Z,110.50
2023-04-29T09:24:19.066Z,115.20
2023-04-29T09:25:19.096Z,121.63
2023-04-29T09:26:19.079Z,115.81
2023-04-29T09:27:19.073Z,117.09
2023-04-29T09:28:19.045Z,112.81
2023-04-29T09:29:19.047Z,113.59
2023-04-29T09:30:19.062Z,115.03
2023-04-29T09:31:19.056Z,107.04
2023-04-29T09:32:19.057Z,112.35
2023-04-29T09:33:19.020Z,113.75
2023-04-29T09:34:19.135Z,110.16
2023-04-29T09:35:18.997Z,109.11
2023-04-29T09:36:18.994Z,105.05
2023-04-29T09:37:18.998Z,109.95
2023-04-29T09:38:19.008Z,106.94
2023-04-29T09:39:19.038Z,104.96
2023-04-29T09:40:19.002Z,100.70
2023-04-29T09:41:18.967Z,103.02
2023-04-29T09:42:18.977Z,106.15
2023-04-29T09:43:19.001Z,106.75
2023-04-29T09:44:18.983Z,106.92
2023-04-29T09:45:18.936Z,110.19
2023-04-29T09:46:19.000Z,108.90
2023-04-29T09:47:18.935Z,109.91
2023-04-29T09:48:18.949Z,110.57
2023-04-29T09:49:18.930Z,107.55
2023-04-29T09:50:18.919Z,107.08
2023-04-29T09:51:18.911Z,107.42
2023-04-29T09:52:18.905Z,109.21
2023-04-29T09:53:18.914Z,108.05
2023-04-29T09:54:18.968Z,105.07
2023-04-29T09:55:19.037Z,107.95
2023-04-29T09:56:19.069Z,102.48
2023-04-29T09:57:19.140Z,100.92
2023-04-29T09:58:19.176Z,101.09
2023-04-29T09:59:19.228Z,99.29
2023-04-29T10:00:19.243Z,100.55
2023-04-29T10:01:19.396Z,100.54
2023-04-29T10:02:19.407Z,98.04
2023-04-29T10:03:19.482Z,103.59
2023-04-29T10:04:19.561Z,100.85
2023-04-29T10:05:19.569Z,100.05
2023-04-29T10:06:19.590Z,96.61
2023-04-29T10:07:19.629Z,99.98
2023-04-29T10:08:19.734Z,93.66
2023-04-29T10:09:19.737Z,96.79
2023-04-29T10:10:19.793Z,100.24
2023-04-29T10:11:19.861Z,99.56
2023-04-29T10:12:19.944Z,99.03
2023-04-29T10:13:19.978Z,98.61
2023-04-29T10:14:20.036Z,102.04
2023-04-29T10:15:20.072Z,99.73
2023-04-29T10:16:20.151Z,99.79
2023-04-29T10:17:20.178Z,102.13
2023-04-29T10:18:20.283Z,101.42
2023-04-29T10:19:20.299Z,99.43
2023-04-29T10:20:20.351Z,95.86
2023-04-29T10:21:20.387Z,98.60
2023-04-29T10:22:20.441Z,97.87
2023-04-29T10:23:20.484Z,96.59
2023-04-29T10:24:20.544Z,99.31
2023-04-29T10:25:20.606Z,96.93
2023-04-29T10:26:20.630Z,94.58
2023-04-29T10:27:20.679Z,91.96
2023-04-29T10:28:20.735Z,94.02
2023-04-29T10:29:20.786Z,95.81
2023-04-29T10:30:20.830Z,96.69
2023-04-29T10:31:20.902Z,94.71
2023-04-29T10:32:20.938Z,94.19
2023-04-29T10:33:21.040Z,96.54
2023-04-29T10:34:21.029Z,95.95
2023-04-29T10:35:21.112Z,95.84
2023-04-29T10:36:21.145Z,93.70
2023-04-29T10:37:21.173Z,91.90
2023-04-29T10:38:21.238Z,92.07
2023-04-29T10:39:21.264Z,93.12
2023-04-29T10:40:21.372Z,92.93
2023-04-29T10:41:21.383Z,94.35
2023-04-29T10:42:21.435Z,91.55
2023-04-29T10:43:21.531Z,92.71
2023-04-29T10:44:21.576Z,97.05
2023-04-29T10:45:21.624Z,93.92
2023-04-29T10:46:21.717Z,94.61
2023-04-29T10:47:21.814Z,92.90
2023-04-29T10:48:21.777Z,95.00
2023-04-29T10:49:23.590Z,97.36
2023-04-29T10:50:21.845Z,95.52
2023-04-29T10:51:21.823Z,97.10
2023-04-29T10:52:21.823Z,100.80
2023-04-29T10:53:21.811Z,104.93
2023-04-29T10:54:21.812Z,102.40
2023-04-29T10:55:21.809Z,98.04
2023-04-29T10:56:21.807Z,98.23
2023-04-29T10:57:21.804Z,99.39
2023-04-29T10:58:21.778Z,100.44
2023-04-29T10:59:21.793Z,102.22
2023-04-29T11:00:21.763Z,99.46
2023-04-29T11:01:21.796Z,98.96
2023-04-29T11:02:21.779Z,94.60
2023-04-29T11:03:21.812Z,95.99
2023-04-29T11:04:21.777Z,96.12
2023-04-29T11:05:21.753Z,95.87
2023-04-29T11:06:21.726Z,100.63
2023-04-29T11:07:21.735Z,94.48
2023-04-29T11:08:21.739Z,100.86
2023-04-29T11:09:21.719Z,97.32
2023-04-29T11:10:21.711Z,96.05
2023-04-29T11:11:21.717Z,98.94
2023-04-29T11:12:21.697Z,96.79
2023-04-29T11:13:21.724Z,95.35
2023-04-29T11:14:21.687Z,96.15
2023-04-29T11:15:21.689Z,101.22
2023-04-29T11:16:21.710Z,98.88
2023-04-29T11:17:21.729Z,90.57
2023-04-29T11:18:21.673Z,92.60
2023-04-29T11:19:21.666Z,88.81
2023-04-29T11:20:21.665Z,93.37
2023-04-29T11:21:21.642Z,92.59
2023-04-29T11:22:21.660Z,93.32
2023-04-29T11:23:21.627Z,98.30
2023-04-29T11:24:21.643Z,89.97
2023-04-29T11:25:21.616Z,85.84
2023-04-29T11:26:21.635Z,89.84
2023-04-29T11:27:21.618Z,88.15
2023-04-29T11:28:21.608Z,87.26
2023-04-29T11:29:21.583Z,79.97
2023-04-29T11:30:21.579Z,88.23
2023-04-29T11:31:21.644Z,91.97
2023-04-29T11:32:21.665Z,84.42
2023-04-29T11:33:21.597Z,85.88
2023-04-29T11:34:21.549Z,82.33
2023-04-29T11:35:21.561Z,81.72
2023-04-29T11:36:21.540Z,81.50
2023-04-29T11:37:21.544Z,85.29
2023-04-29T11:38:21.557Z,77.29
2023-04-29T11:39:21.540Z,82.84
2023-04-29T11:40:21.513Z,80.90
2023-04-29T11:41:21.553Z,87.98
2023-04-29T11:42:21.512Z,81.94
2023-04-29T11:43:21.526Z,80.70
2023-04-29T11:44:21.512Z,79.92
2023-04-29T11:45:21.501Z,77.47
2023-04-29T11:46:21.493Z,74.67
2023-04-29T11:47:21.490Z,70.15
2023-04-29T11:48:21.467Z,73.13
2023-04-29T11:49:21.460Z,66.64
2023-04-29T11:50:21.477Z,70.66
2023-04-29T11:51:21.472Z,62.31
2023-04-29T11:52:21.454Z,60.35
2023-04-29T11:53:21.458Z,64.81
2023-04-29T11:54:21.443Z,61.02
2023-04-29T11:55:21.429Z,53.13
2023-04-29T11:56:21.414Z,63.41
2023-04-29T11:57:21.416Z,57.26
2023-04-29T11:58:21.398Z,50.58
2023-04-29T11:59:21.393Z,52.54
2023-04-29T12:00:21.401Z,47.43
2023-04-29T12:01:21.401Z,48.13
2023-04-29T12:02:21.493Z,45.00
2023-04-29T12:03:21.485Z,46.66
2023-04-29T12:04:21.552Z,46.75
2023-04-29T12:05:21.565Z,46.94
2023-04-29T12:06:21.351Z,47.90
2023-04-29T12:07:21.343Z,45.90
2023-04-29T12:08:21.349Z,41.64
2023-04-29T12:09:21.333Z,44.33
2023-04-29T12:10:21.344Z,39.48
2023-04-29T12:11:21.316Z,39.56
2023-04-29T12:12:21.331Z,40.17
2023-04-29T12:13:21.299Z,35.57
2023-04-29T12:14:21.303Z,39.40
2023-04-29T12:15:21.283Z,33.66
2023-04-29T12:16:21.339Z,35.52
2023-04-29T12:17:21.277Z,31.86
2023-04-29T12:18:21.283Z,29.91
2023-04-29T12:19:21.258Z,25.00
2023-04-29T12:20:21.251Z,30.89
2023-04-29T12:21:21.249Z,35.46
2023-04-29T12:22:21.256Z,30.42
2023-04-29T12:23:21.245Z,34.36
2023-04-29T12:24:21.234Z,33.50
2023-04-29T12:25:21.231Z,26.79
2023-04-29T12:26:21.338Z,31.34
2023-04-29T12:27:21.221Z,30.07
2023-04-29T12:28:21.220Z,30.64
2023-04-29T12:29:21.194Z,28.71
2023-04-29T12:30:21.184Z,31.27
2023-04-29T12:31:21.203Z,30.81
2023-04-29T12:32:21.180Z,30.58